Latest Weather Observations for Wilcannia Airport

IDN60801

Issued at 11:33 am EDT Monday 22 December 2014 (issued every 30 minutes, with the page automatically refreshed every 10 minutes)

About weather observations | Map of weather stations | Latest weather observations for NSW | Other Formats
Station Details ID: 046012 Name: WILCANNIA AERODROME AWS Lat: -31.52 Lon: 143.38 Height: 94.3 m
Data from the previous 72 hours. | See also: Recent months for locations in New South Wales
Date/Time
EDT
Temp
°C
App
Temp
°C
Dew
Point
Rel
Hum
%
Delta-T
°C
Wind Press
QNH
hPa
Press
MSL
hPa
Rain
since 9 am
mm
Dir
 
Spd
km/h
Gust
km/h
Spd
kts
Gust
kts
22/11:30am 37.6 31.9 0.8 10 18.8 NNE 20 32 11 17 1008.2 1007.7 0.0
22/11:00am 36.8 31.4 1.5 11 18.2 NE 19 26 10 14 1008.3 1007.8 0.0
22/10:30am 37.8 32.9 2.3 11 18.6 NE 17 28 9 15 1008.7 1008.2 0.0
22/10:00am 34.2 29.3 -0.4 11 17.0 NNE 15 20 8 11 1008.9 1008.4 0.0
22/09:30am 33.0 28.1 -0.2 12 16.2 NNE 15 22 8 12 1008.9 1008.4 0.0
22/09:00am 31.3 27.2 -0.4 13 15.3 NNE 11 19 6 10 1008.7 1008.2 0.0
22/08:30am 29.3 25.1 -0.9 14 14.2 NNE 11 13 6 7 1008.9 1008.4 0.0
22/08:00am 27.3 22.7 -0.7 16 13.0 NE 13 17 7 9 1008.6 1008.1 0.0
22/07:30am 26.1 21.0 -1.7 16 12.6 NE 15 17 8 9 1008.0 1007.5 0.0
22/07:00am 25.7 21.1 -1.2 17 12.3 NE 13 15 7 8 1007.5 1007.0 0.0
22/06:30am 24.9 19.8 -1.8 17 11.9 NE 15 17 8 9 1007.2 1006.7 0.0
22/06:00am 25.0 19.9 -1.7 17 12.0 NE 15 17 8 9 1007.0 1006.5 0.0
22/05:30am 24.3 19.2 -2.3 17 11.7 ENE 15 17 8 9 1006.9 1006.4 0.0
22/05:00am 24.1 19.2 -3.3 16 11.8 ENE 13 15 7 8 1006.8 1006.3 0.0
22/04:30am 24.8 20.0 -2.7 16 12.1 ENE 13 15 7 8 1006.7 1006.2 0.0
22/04:00am 25.6 20.8 -2.9 15 12.6 ENE 13 15 7 8 1007.0 1006.5 0.0
22/03:30am 25.0 20.2 -2.5 16 12.1 E 13 13 7 7 1007.3 1006.8 0.0
22/03:00am 24.7 19.8 -3.6 15 12.2 E 13 15 7 8 1007.5 1007.0 0.0
22/02:30am 25.5 20.6 -3.0 15 12.5 E 13 24 7 13 1007.7 1007.2 0.0
22/02:00am 26.1 22.1 -2.5 15 12.8 ENE 9 11 5 6 1008.0 1007.5 0.0
22/01:30am 24.5 20.7 -3.8 15 12.1 NE 7 9 4 5 1008.7 1008.2 0.0
22/01:00am 25.1 20.6 -3.3 15 12.4 NE 11 13 6 7 1008.9 1008.4 0.0
22/12:30am 25.0 20.9 -3.4 15 12.3 ENE 9 11 5 6 1009.1 1008.6 0.0
22/12:00am 26.4 21.9 -3.2 14 13.1 ENE 11 11 6 6 1009.2 1008.7 0.0
 
Date/Time
EDT
Temp
°C
App
Temp
°C
Dew
Point
Rel
Hum
%
Delta-T
°C
Wind Press
QNH
hPa
Press
MSL
hPa
Rain
since 9 am
mm
Dir
 
Spd
km/h
Gust
km/h
Spd
kts
Gust
kts
21/11:30pm 27.4 23.4 -2.4 14 13.4 E 9 11 5 6 1009.2 1008.7 0.0
21/11:00pm 27.7 23.3 -2.2 14 13.6 ESE 11 11 6 6 1009.2 1008.7 0.0
21/10:30pm 27.1 22.9 -3.7 13 13.5 ESE 9 11 5 6 1009.1 1008.6 0.0
21/10:00pm 27.3 23.1 -3.5 13 13.6 ESE 9 9 5 5 1009.1 1008.6 0.0
21/09:30pm 28.0 24.4 -4.0 12 14.1 ESE 6 9 3 5 1009.1 1008.6 0.0
21/09:00pm 30.1 27.8 -2.4 12 15.0 CALM 0 0 0 0 1009.0 1008.5 0.0
21/08:30pm 32.3 30.1 -1.9 11 16.2 CALM 0 0 0 0 1008.8 1008.3 0.0
21/08:00pm 34.7 32.5 -1.4 10 17.5 CALM 0 6 0 3 1008.6 1008.1 0.0
21/07:30pm 36.4 33.1 -1.5 9 18.5 E 6 11 3 6 1008.3 1007.8 0.0
21/07:00pm 37.1 34.4 -2.6 8 19.2 SSW 2 7 1 4 1008.2 1007.7 0.0
21/06:30pm 38.4 34.9 -1.6 8 19.8 E 7 13 4 7 1008.1 1007.6 0.0
21/06:00pm 38.3 33.2 -1.7 8 19.8 NW 15 28 8 15 1008.2 1007.7 0.0
21/05:30pm 38.0 34.3 -0.3 9 19.3 ENE 9 11 5 6 1008.2 1007.7 0.0
21/05:00pm 38.6 34.9 0.1 9 19.6 E 9 20 5 11 1008.5 1008.0 0.0
21/04:30pm 38.2 34.5 -0.2 9 19.4 SE 9 17 5 9 1008.9 1008.4 0.0
21/04:00pm 37.3 32.7 -0.9 9 19.0 N 13 26 7 14 1009.3 1008.8 0.0
21/03:30pm 38.0 33.5 -0.3 9 19.3 SE 13 24 7 13 1009.4 1008.9 0.0
21/03:00pm 37.9 33.8 -0.4 9 19.2 NE 11 20 6 11 1010.1 1009.6 0.0
21/02:30pm 38.0 33.1 -0.3 9 19.3 N 15 30 8 16 1010.7 1010.2 0.0
21/02:00pm 37.4 33.1 0.7 10 18.7 NNE 13 24 7 13 1011.2 1010.7 0.0
21/01:30pm 36.7 33.0 0.1 10 18.4 E 9 17 5 9 1011.7 1011.2 0.0
21/01:00pm 35.7 31.7 0.7 11 17.6 E 11 30 6 16 1012.0 1011.5 0.0
21/12:30pm 35.8 31.5 0.8 11 17.7 NE 13 24 7 13 1012.4 1011.9 0.0
21/12:00pm 35.4 31.0 0.5 11 17.5 NNE 13 24 7 13 1012.9 1012.3 0.0
21/11:30am 35.1 30.1 1.5 12 17.1 ENE 17 26 9 14 1013.1 1012.5 0.0
21/11:00am 34.3 28.8 1.9 13 16.5 NE 20 32 11 17 1013.3 1012.7 0.0
21/10:30am 34.1 29.2 1.8 13 16.4 NE 17 26 9 14 1013.4 1012.9 0.0
21/10:00am 32.3 26.7 1.4 14 15.4 ENE 20 26 11 14 1013.7 1013.2 0.0
21/09:30am 31.4 25.5 1.7 15 14.8 ENE 22 30 12 16 1013.6 1013.1 0.0
21/09:00am 30.4 24.9 1.8 16 14.2 E 20 28 11 15 1013.5 1013.0 0.0
21/08:30am 28.9 23.7 3.7 20 12.8 E 20 24 11 13 1013.4 1012.9 0.0
21/08:00am 26.8 21.9 4.0 23 11.5 E 19 26 10 14 1013.1 1012.5 0.0
21/07:30am 24.6 20.7 3.3 25 10.4 ESE 13 17 7 9 1013.1 1012.5 0.0
21/07:00am 21.7 17.9 3.9 31 8.6 ESE 13 15 7 8 1013.0 1012.4 0.0
21/06:30am 16.7 12.9 2.0 37 6.6 SE 11 13 6 7 1012.7 1012.2 0.0
21/06:00am 17.1 13.2 1.1 34 7.1 SE 11 13 6 7 1012.5 1012.0 0.0
21/05:30am 18.1 15.5 1.2 32 7.6 SE 4 7 2 4 1012.3 1011.8 0.0
21/05:00am 19.4 15.2 1.9 31 8.0 SE 13 13 7 7 1012.0 1011.5 0.0
21/04:30am 20.0 15.8 1.9 30 8.3 SE 13 15 7 8 1011.9 1011.4 0.0
21/04:00am 21.0 16.6 2.8 30 8.6 SE 15 17 8 9 1011.8 1011.3 0.0
21/03:30am 20.7 16.6 2.0 29 8.7 SE 13 15 7 8 1011.8 1011.3 0.0
21/03:00am 20.6 16.5 2.0 29 8.6 SE 13 15 7 8 1012.0 1011.5 0.0
21/02:30am 20.9 16.7 1.7 28 8.9 SE 13 15 7 8 1012.1 1011.6 0.0
21/02:00am 21.6 17.4 1.8 27 9.2 SE 13 13 7 7 1012.3 1011.8 0.0
21/01:30am 22.4 18.3 2.0 26 9.6 SE 13 15 7 8 1012.5 1012.0 0.0
21/01:00am 22.9 18.7 1.8 25 9.9 SSE 13 15 7 8 1012.5 1012.0 0.0
21/12:30am 23.5 19.3 1.8 24 10.3 SSE 13 13 7 7 1012.9 1012.3 0.0
21/12:00am 23.9 19.7 1.5 23 10.6 SSE 13 15 7 8 1013.0 1012.4 0.0
 
Date/Time
EDT
Temp
°C
App
Temp
°C
Dew
Point
Rel
Hum
%
Delta-T
°C
Wind Press
QNH
hPa
Press
MSL
hPa
Rain
since 9 am
mm
Dir
 
Spd
km/h
Gust
km/h
Spd
kts
Gust
kts
20/11:30pm 24.5 20.4 2.0 23 10.7 SE 13 13 7 7 1013.1 1012.5 0.0
20/11:00pm 24.8 20.3 2.3 23 10.8 SE 15 15 8 8 1013.1 1012.5 0.0
20/10:30pm 24.9 20.6 1.1 21 11.2 SE 13 13 7 7 1013.3 1012.7 0.0
20/10:00pm 25.4 21.6 1.5 21 11.4 SE 11 13 6 7 1013.2 1012.6 0.0
20/09:30pm 26.4 22.2 -0.6 17 12.5 SE 11 13 6 7 1013.1 1012.5 0.0
20/09:00pm 28.2 24.1 0.0 16 13.3 SE 11 15 6 8 1012.9 1012.3 0.0
20/08:30pm 29.8 25.4 0.4 15 14.2 SSE 13 17 7 9 1012.4 1011.9 0.0
20/08:00pm 31.3 26.6 0.6 14 15.0 SE 15 22 8 12 1012.2 1011.7 0.0
20/07:30pm 32.0 27.2 0.2 13 15.5 SE 15 22 8 12 1011.9 1011.4 0.0
20/07:00pm 32.3 27.1 0.4 13 15.7 SE 17 24 9 13 1011.8 1011.3 0.0
20/06:30pm 33.1 27.9 -0.1 12 16.2 SSE 17 24 9 13 1011.7 1011.2 0.0
20/06:00pm 33.5 28.3 0.2 12 16.4 SSE 17 24 9 13 1011.7 1011.2 0.0
20/05:30pm 33.6 30.0 0.3 12 16.4 SE 9 22 5 12 1011.8 1011.3 0.0
20/05:00pm 33.3 28.1 0.1 12 16.3 S 17 30 9 16 1012.2 1011.7 0.0
20/04:30pm 33.0 27.8 -0.2 12 16.2 SE 17 30 9 16 1012.5 1012.0 0.0
20/04:00pm 33.0 27.8 -0.2 12 16.2 SSE 17 28 9 15 1013.0 1012.4 0.0
20/03:30pm 32.2 28.6 0.3 13 15.6 E 9 20 5 11 1013.6 1013.1 0.0
20/03:00pm 32.1 27.3 0.2 13 15.6 SE 15 26 8 14 1013.9 1013.4 0.0
20/02:30pm 32.1 27.7 0.2 13 15.6 ESE 13 22 7 12 1014.4 1013.9 0.0
20/02:00pm 30.9 26.5 0.3 14 14.8 SSE 13 19 7 10 1014.8 1014.3 0.0
20/01:30pm 30.7 25.5 0.2 14 14.7 S 17 26 9 14 1015.4 1014.9 0.0
20/01:00pm 29.3 24.7 -0.9 14 14.2 ESE 13 24 7 13 1015.7 1015.2 0.0
20/12:30pm 29.8 24.9 -0.5 14 14.4 S 15 26 8 14 1016.3 1015.8 0.0
20/12:00pm 28.4 23.8 -0.7 15 13.6 SE 13 26 7 14 1016.6 1016.1 0.0
20/11:30am 28.4 23.5 -0.7 15 13.6 SE 15 28 8 15 1017.0 1016.5 0.0
20/11:00am 27.6 21.9 -0.5 16 13.1 SE 19 28 10 15 1017.2 1016.7 0.0
20/10:30am 27.4 22.5 -0.6 16 13.0 E 15 22 8 12 1017.3 1016.8 0.0
20/10:00am 26.2 21.5 -1.6 16 12.6 SSE 13 24 7 13 1017.5 1017.0 0.0
20/09:30am 25.8 20.4 -1.1 17 12.3 ESE 17 24 9 13 1017.7 1017.2 0.0
20/09:00am 25.2 20.1 -1.6 17 12.0 E 15 22 8 12 1017.6 1017.1 0.0
20/08:30am 23.5 18.2 -0.7 20 10.9 ESE 17 24 9 13 1017.4 1016.9 0.0
20/08:00am 21.6 16.6 -1.0 22 9.9 SE 15 19 8 10 1017.4 1016.9 0.0
20/07:30am 19.8 16.1 -0.2 26 8.8 SSE 9 13 5 7 1017.3 1016.8 0.0
20/07:00am 16.1 11.9 -1.0 31 7.2 S 11 13 6 7 1016.7 1016.2 0.0
20/06:30am 12.5 8.3 -3.7 32 6.2 S 9 13 5 7 1016.1 1015.6 0.0
20/06:00am 12.5 8.8 -3.3 33 6.1 SSW 7 9 4 5 1015.8 1015.3 0.0
20/05:30am 12.3 8.5 -3.9 32 6.1 S 7 7 4 4 1015.6 1015.1 0.0
20/05:00am 12.6 8.5 -3.2 33 6.1 S 9 11 5 6 1015.6 1015.1 0.0
20/04:30am 13.6 9.5 -3.2 31 6.5 SSW 9 9 5 5 1015.6 1015.1 0.0
20/04:00am 13.4 9.6 -3.8 30 6.6 SSW 7 9 4 5 1015.6 1015.1 0.0
20/03:30am 14.8 11.1 -2.6 30 7.0 SSW 7 9 4 5 1015.6 1015.1 0.0
20/03:00am 14.6 10.4 -4.2 27 7.2 SSW 9 9 5 5 1015.8 1015.3 0.0
20/02:30am 16.1 11.7 -2.4 28 7.5 S 11 13 6 7 1016.0 1015.5 0.0
20/02:00am 16.8 12.0 -2.3 27 7.8 S 13 13 7 7 1016.1 1015.6 0.0
20/01:30am 16.1 12.0 -3.4 26 7.8 S 9 11 5 6 1016.3 1015.8 0.0
20/01:00am 17.1 12.6 -3.1 25 8.2 S 11 11 6 6 1016.5 1016.0 0.0
20/12:30am 18.7 13.9 -2.3 24 8.8 S 13 13 7 7 1016.6 1016.1 0.0
20/12:00am 19.6 14.9 -2.1 23 9.2 S 13 13 7 7 1016.9 1016.4 0.0
 
Date/Time
EDT
Temp
°C
App
Temp
°C
Dew
Point
Rel
Hum
%
Delta-T
°C
Wind Press
QNH
hPa
Press
MSL
hPa
Rain
since 9 am
mm
Dir
 
Spd
km/h
Gust
km/h
Spd
kts
Gust
kts
19/11:30pm 20.0 15.6 -2.3 22 9.4 SSE 11 11 6 6 1017.0 1016.5 0.0
19/11:00pm 21.6 17.3 -1.6 21 10.1 SSE 11 15 6 8 1017.0 1016.5 0.0
19/10:30pm 22.4 18.1 -1.6 20 10.5 SSE 11 17 6 9 1016.7 1016.2 0.0
19/10:00pm 23.4 18.7 -1.5 19 11.0 S 13 17 7 9 1016.2 1015.7 0.0
19/09:30pm 24.5 19.0 -2.1 17 11.8 SSE 17 26 9 14 1015.9 1015.4 0.0
19/09:00pm 24.9 19.8 -1.8 17 11.9 S 15 19 8 10 1015.6 1015.1 0.0
19/08:30pm 25.9 20.1 -1.8 16 12.5 S 19 26 10 14 1015.3 1014.8 0.0
19/08:00pm 27.1 21.1 -2.7 14 13.3 S 19 28 10 15 1015.0 1014.5 0.0
19/07:30pm 27.8 21.0 -2.1 14 13.6 S 24 33 13 18 1014.8 1014.3 0.0
19/07:00pm 28.4 21.8 -3.7 12 14.2 S 22 32 12 17 1014.5 1014.0 0.0
19/06:30pm 29.2 21.9 -3.1 12 14.6 SSW 26 37 14 20 1014.2 1013.7 0.0
19/06:00pm 29.5 22.4 -4.0 11 14.9 SSW 24 37 13 20 1014.1 1013.6 0.0
19/05:30pm 29.4 21.9 -4.1 11 14.9 SSW 26 39 14 21 1014.4 1013.9 0.0
19/05:00pm 29.9 22.5 -3.7 11 15.1 SSW 26 41 14 22 1014.5 1014.0 0.0
19/04:30pm 29.2 22.2 -3.1 12 14.6 SSW 24 44 13 24 1014.8 1014.3 0.0
19/04:00pm 29.1 22.6 -2.1 13 14.3 SSW 22 35 12 19 1015.1 1014.6 0.0
19/03:30pm 29.1 23.2 -2.1 13 14.3 SSW 19 28 10 15 1015.4 1014.9 0.0
19/03:00pm 28.4 22.6 -1.6 14 13.8 SW 19 35 10 19 1015.6 1015.1 0.0
19/02:30pm 27.6 20.7 -2.3 14 13.5 SW 24 37 13 20 1016.0 1015.5 0.0
19/02:00pm 27.7 21.7 -1.3 15 13.3 SSW 20 35 11 19 1016.3 1015.8 0.0
19/01:30pm 26.0 20.1 -0.9 17 12.3 SW 20 33 11 18 1016.6 1016.1 0.0
19/01:00pm 25.8 19.8 1.2 20 11.7 SSW 22 33 12 18 1016.9 1016.4 0.0
19/12:30pm 25.1 19.8 3.1 24 10.8 SW 20 33 11 18 1017.2 1016.7 0.0
19/12:00pm 24.7 19.8 3.9 26 10.3 SSW 19 32 10 17 1017.5 1017.0 0.0

Other Formats:

Comma delimited format used in spreadsheet applications
http://www.bom.gov.au/fwo/IDN60801/IDN60801.95695.axf

JavaScript Object Notation format (JSON) in row-major order
http://www.bom.gov.au/fwo/IDN60801/IDN60801.95695.json